Time;durP1;ratioP1;P1;durP2;ratioP2;P2;SDS_P1;SDS_P2;PMS_P1;PMS_P2;Temp;Humidity;BMP_temperature;BMP_pressure;BME280_temperature;BME280_humidity;BME280_pressure;Samples;Min_cycle;Max_cycle;Signal;HPM_P1;HPM_P2
2022/01/23 00:01:13;;;;;;;;;;;;;;;5.00;87.68;102812.44;5017377;27;21014;-66
2022/01/23 00:03:44;;;;;;;;;;;;;;;4.91;87.76;102818.00;5033033;27;20162;-70
2022/01/23 00:06:10;;;;;;;;;;;;;;;4.86;88.49;102822.53;5013007;27;20221;-68
2022/01/23 00:08:35;;;;;;;;;;;;;;;4.91;88.45;102816.22;5015345;27;20898;-70
2022/01/23 00:11:00;;;;;;;;;;;;;;;4.89;88.74;102810.16;4997795;27;19903;-70
2022/01/23 00:13:37;;;;;;;;;;;;;;;4.94;88.32;102815.28;4997236;27;19960;-70
2022/01/23 00:18:46;;;;;;;;;;;;;;;4.95;87.64;102822.22;5048446;27;20582;-69
2022/01/23 00:21:11;;;;;;;;;;;;;;;4.97;87.74;102823.88;5036017;27;20728;-67
2022/01/23 00:31:34;;;;;;;;;;;;;;;4.89;88.79;102806.69;5053316;27;20078;-67
2022/01/23 00:34:00;;;;;;;;;;;;;;;4.86;88.24;102799.75;5034734;27;20666;-68
2022/01/23 00:36:25;;;;;;;;;;;;;;;4.85;88.48;102799.81;5057342;27;20961;-68
2022/01/23 00:38:51;;;;;;;;;;;;;;;5.00;87.89;102801.94;5036015;27;19907;-68
2022/01/23 00:41:16;;;;;;;;;;;;;;;4.96;88.06;102795.06;5019361;27;19911;-69
2022/01/23 00:43:43;;;;;;;;;;;;;;;4.92;87.74;102788.22;5058553;27;19919;-67
2022/01/23 00:48:37;;;;;;;;;;;;;;;5.01;87.56;102784.44;5035563;27;20393;-67
2022/01/23 00:51:02;;;;;;;;;;;;;;;4.98;88.19;102785.41;5056172;27;20529;-66
2022/01/23 00:53:27;;;;;;;;;;;;;;;4.98;87.80;102785.41;5057384;27;19914;-68
2022/01/23 00:55:52;;;;;;;;;;;;;;;4.91;88.25;102784.75;5054879;27;20413;-68
2022/01/23 00:58:18;;;;;;;;;;;;;;;4.92;88.55;102785.59;5054803;27;20335;-67
2022/01/23 01:00:43;;;;;;;;;;;;;;;4.85;88.34;102784.94;5015753;27;19956;-68
2022/01/23 01:03:09;;;;;;;;;;;;;;;4.85;89.19;102784.94;5033630;27;19914;-67
2022/01/23 01:05:34;;;;;;;;;;;;;;;4.81;88.54;102780.69;5034260;27;19956;-69
2022/01/23 01:07:59;;;;;;;;;;;;;;;4.86;88.76;102776.16;5054206;27;20012;-67
2022/01/23 01:10:32;;;;;;;;;;;;;;;4.96;88.50;102779.34;5056433;27;20274;-70
2022/01/23 01:13:00;;;;;;;;;;;;;;;4.96;89.10;102784.56;5053892;27;19903;-69
2022/01/23 01:15:37;;;;;;;;;;;;;;;4.90;89.16;102783.00;5055442;27;19934;-68
2022/01/23 01:31:45;;;;;;;;;;;;;;;4.79;89.53;102793.88;5055571;27;20253;-68
2022/01/23 01:34:16;;;;;;;;;;;;;;;4.81;89.51;102796.44;5020395;27;19979;-68
2022/01/23 01:36:50;;;;;;;;;;;;;;;4.87;89.38;102790.13;5018124;27;19907;-68
2022/01/23 01:39:16;;;;;;;;;;;;;;;4.84;89.31;102793.72;5037035;27;19964;-67
2022/01/23 01:41:41;;;;;;;;;;;;;;;4.90;89.46;102795.28;5033197;27;19910;-68
2022/01/23 01:44:07;;;;;;;;;;;;;;;4.84;89.32;102784.97;5053311;27;19910;-68
2022/01/23 01:46:32;;;;;;;;;;;;;;;4.82;88.95;102785.03;5056000;27;19919;-68
2022/01/23 01:48:57;;;;;;;;;;;;;;;4.84;89.61;102790.22;5017095;27;19907;-68
2022/01/23 01:51:23;;;;;;;;;;;;;;;4.87;89.30;102798.00;5032252;27;20145;-67
2022/01/23 01:53:56;;;;;;;;;;;;;;;4.81;89.24;102789.41;5032957;27;19915;-66
2022/01/23 01:56:22;;;;;;;;;;;;;;;4.80;89.45;102795.56;5045059;27;20224;-68
2022/01/23 02:09:17;;;;;;;;;;;;;;;4.80;89.56;102781.59;5036878;27;19970;-68
2022/01/23 02:14:34;;;;;;;;;;;;;;;4.76;89.95;102786.06;5055217;27;20502;-67
2022/01/23 02:52:55;;;;;;;;;;;;;;;4.80;90.78;102790.31;5046750;27;19914;-67
2022/01/23 02:55:25;;;;;;;;;;;;;;;4.85;90.61;102779.69;5033441;28;19919;-66
2022/01/23 02:57:54;;;;;;;;;;;;;;;4.80;90.16;102792.09;5036941;27;19914;-67
2022/01/23 03:00:21;;;;;;;;;;;;;;;4.75;90.63;102775.63;5062771;27;19911;-68
2022/01/23 03:02:53;;;;;;;;;;;;;;;4.79;90.49;102778.13;5050436;27;19915;-68
2022/01/23 03:05:35;;;;;;;;;;;;;;;4.80;90.83;102758.84;5031653;27;19911;-67
2022/01/23 03:08:19;;;;;;;;;;;;;;;4.88;90.10;102760.34;5014525;27;19922;-69
2022/01/23 03:10:57;;;;;;;;;;;;;;;4.85;90.41;102755.22;5015383;27;19916;-68
2022/01/23 03:13:41;;;;;;;;;;;;;;;4.81;90.46;102760.56;5037284;27;20820;-67
2022/01/23 03:29:40;;;;;;;;;;;;;;;4.71;90.77;102780.13;5059455;27;19995;-68
2022/01/23 03:32:20;;;;;;;;;;;;;;;4.76;90.76;102774.72;5073484;27;20063;-67
2022/01/23 03:34:45;;;;;;;;;;;;;;;4.72;90.33;102779.19;5057489;27;19922;-67
2022/01/23 03:37:10;;;;;;;;;;;;;;;4.84;90.58;102784.97;5076701;27;20805;-67
2022/01/23 03:39:35;;;;;;;;;;;;;;;4.82;90.43;102769.28;5075645;27;21356;-68
2022/01/23 03:42:01;;;;;;;;;;;;;;;4.74;90.46;102774.78;5058234;27;20011;-68
2022/01/23 03:44:26;;;;;;;;;;;;;;;4.79;90.63;102782.50;5056608;27;19967;-67
2022/01/23 03:47:13;;;;;;;;;;;;;;;4.88;89.88;102776.09;5055282;27;20087;-67
2022/01/23 03:49:39;;;;;;;;;;;;;;;4.78;89.61;102780.78;5057822;27;19963;-69
2022/01/23 03:52:13;;;;;;;;;;;;;;;4.71;89.72;102767.03;5054725;27;20513;-67
2022/01/23 03:54:38;;;;;;;;;;;;;;;4.73;90.30;102775.69;5031256;27;19929;-67
2022/01/23 03:57:04;;;;;;;;;;;;;;;4.69;90.41;102779.31;5015712;27;19903;-69
2022/01/23 03:59:29;;;;;;;;;;;;;;;4.69;90.78;102783.72;5036655;27;19903;-68
2022/01/23 04:01:54;;;;;;;;;;;;;;;4.60;90.21;102784.84;5032280;27;19912;-67
2022/01/23 04:04:36;;;;;;;;;;;;;;;4.68;90.66;102793.31;5036157;27;20024;-69
2022/01/23 04:07:02;;;;;;;;;;;;;;;4.63;90.22;102795.25;5036086;27;20361;-68
2022/01/23 04:09:27;;;;;;;;;;;;;;;4.65;90.50;102801.28;5036316;27;19907;-67
2022/01/23 04:11:53;;;;;;;;;;;;;;;4.64;90.55;102810.09;5034557;27;19908;-67
2022/01/23 04:14:20;;;;;;;;;;;;;;;4.75;90.85;102802.75;5039671;27;20393;-68
2022/01/23 04:19:33;;;;;;;;;;;;;;;4.68;90.40;102811.69;5039512;27;20147;-68
2022/01/23 04:33:26;;;;;;;;;;;;;;;4.66;90.19;102805.63;5033195;27;20000;-68
2022/01/23 05:00:22;;;;;;;;;;;;;;;4.60;90.46;102814.53;5037595;27;19970;-68
2022/01/23 05:05:34;;;;;;;;;;;;;;;4.61;90.81;102818.00;5054975;27;20291;-69
2022/01/23 05:08:04;;;;;;;;;;;;;;;4.69;90.63;102821.28;5013609;27;19997;-68
2022/01/23 05:10:29;;;;;;;;;;;;;;;4.63;90.07;102809.19;5031097;27;20857;-67
2022/01/23 05:12:54;;;;;;;;;;;;;;;4.58;90.45;102810.25;5013721;27;19908;-68
2022/01/23 05:15:20;;;;;;;;;;;;;;;4.72;90.40;102813.28;5032082;27;19975;-68
2022/01/23 05:17:45;;;;;;;;;;;;;;;4.70;90.33;102809.88;5033456;27;19903;-68
2022/01/23 05:20:13;;;;;;;;;;;;;;;4.65;90.45;102811.78;5035233;27;19899;-67
2022/01/23 05:22:44;;;;;;;;;;;;;;;4.52;90.60;102811.28;5053915;27;19911;-68
2022/01/23 05:25:18;;;;;;;;;;;;;;;4.46;91.08;102807.09;5034337;27;19908;-68
2022/01/23 05:27:44;;;;;;;;;;;;;;;4.56;91.03;102805.06;5038828;27;19907;-66
2022/01/23 05:30:09;;;;;;;;;;;;;;;4.63;91.15;102803.13;5055411;27;20127;-67
2022/01/23 05:32:39;;;;;;;;;;;;;;;4.56;90.75;102796.34;5053871;27;20589;-67
2022/01/23 05:35:05;;;;;;;;;;;;;;;4.56;90.32;102804.22;5053681;27;19961;-69
2022/01/23 05:37:31;;;;;;;;;;;;;;;4.50;90.99;102809.63;5036400;27;20154;-68
2022/01/23 05:39:56;;;;;;;;;;;;;;;4.44;91.34;102808.91;5034512;27;19963;-70
2022/01/23 05:42:22;;;;;;;;;;;;;;;4.47;91.33;102800.97;5035140;27;20004;-70
2022/01/23 05:44:47;;;;;;;;;;;;;;;4.49;91.20;102800.06;5044562;27;19908;-70
2022/01/23 05:47:12;;;;;;;;;;;;;;;4.50;90.92;102801.75;5052319;27;19968;-69
2022/01/23 05:49:37;;;;;;;;;;;;;;;4.48;90.96;102812.28;5034666;27;19956;-67
2022/01/23 05:52:03;;;;;;;;;;;;;;;4.51;91.17;102814.81;5052637;27;20775;-69
2022/01/23 05:54:28;;;;;;;;;;;;;;;4.63;90.90;102824.09;5030362;27;19923;-70
2022/01/23 05:56:54;;;;;;;;;;;;;;;4.64;90.58;102825.81;5028376;27;19909;-68
2022/01/23 05:59:20;;;;;;;;;;;;;;;4.64;90.37;102826.66;5032745;27;19907;-68
2022/01/23 06:01:46;;;;;;;;;;;;;;;4.56;90.58;102830.44;5034657;27;20993;-67
2022/01/23 06:04:12;;;;;;;;;;;;;;;4.52;90.80;102836.66;5035953;27;20049;-68
2022/01/23 06:06:37;;;;;;;;;;;;;;;4.54;91.04;102840.09;5018180;27;20834;-68
2022/01/23 06:09:02;;;;;;;;;;;;;;;4.53;91.38;102831.38;5034137;27;19991;-69
2022/01/23 06:11:28;;;;;;;;;;;;;;;4.52;91.53;102841.91;5034409;27;19907;-67
2022/01/23 06:13:53;;;;;;;;;;;;;;;4.42;92.16;102836.91;5035057;27;19907;-69
2022/01/23 06:16:18;;;;;;;;;;;;;;;4.40;91.82;102833.50;5057162;27;19918;-68
2022/01/23 06:18:45;;;;;;;;;;;;;;;4.39;92.16;102831.78;5055221;27;19899;-68
2022/01/23 06:21:12;;;;;;;;;;;;;;;4.39;92.68;102837.03;5052264;27;20259;-68
2022/01/23 06:23:37;;;;;;;;;;;;;;;4.43;92.35;102828.16;5036293;27;19919;-68
2022/01/23 06:26:02;;;;;;;;;;;;;;;4.43;92.50;102828.16;5014503;27;19952;-67
2022/01/23 06:28:46;;;;;;;;;;;;;;;4.40;91.95;102823.03;5031713;27;20831;-67
2022/01/23 06:31:11;;;;;;;;;;;;;;;4.42;91.84;102826.44;5042576;27;19911;-70
2022/01/23 06:33:36;;;;;;;;;;;;;;;4.45;92.08;102822.88;5036923;27;20440;-69
2022/01/23 06:36:02;;;;;;;;;;;;;;;4.47;92.07;102823.69;5072909;27;20240;-67
2022/01/23 06:38:27;;;;;;;;;;;;;;;4.46;92.15;102828.06;5057339;27;20362;-68
2022/01/23 06:40:52;;;;;;;;;;;;;;;4.47;91.77;102829.78;5034498;27;20247;-68
2022/01/23 06:43:18;;;;;;;;;;;;;;;4.42;91.95;102834.31;5032825;27;20643;-69
2022/01/23 06:45:43;;;;;;;;;;;;;;;4.45;92.55;102844.69;5015118;27;19983;-68
2022/01/23 06:48:08;;;;;;;;;;;;;;;4.51;91.77;102837.56;5051169;27;19940;-68
2022/01/23 06:50:33;;;;;;;;;;;;;;;4.37;91.76;102849.31;5019052;27;20004;-67
2022/01/23 06:52:58;;;;;;;;;;;;;;;4.31;92.60;102852.09;5032507;27;19918;-67
2022/01/23 06:55:24;;;;;;;;;;;;;;;4.27;93.04;102847.84;5052883;27;19931;-66
2022/01/23 06:57:49;;;;;;;;;;;;;;;4.35;92.77;102845.88;5059339;27;20617;-67
2022/01/23 07:00:14;;;;;;;;;;;;;;;4.32;92.24;102843.34;5053620;27;20488;-68
2022/01/23 07:02:40;;;;;;;;;;;;;;;4.28;92.68;102845.19;5033474;27;20158;-67
2022/01/23 07:05:05;;;;;;;;;;;;;;;4.30;92.72;102850.38;5028559;28;20167;-67
2022/01/23 07:07:30;;;;;;;;;;;;;;;4.28;92.79;102850.44;5013962;28;19911;-68
2022/01/23 07:09:55;;;;;;;;;;;;;;;4.28;92.98;102849.56;5034588;27;19907;-67
2022/01/23 07:12:21;;;;;;;;;;;;;;;4.34;92.43;102854.63;5037966;28;20850;-69
2022/01/23 07:14:46;;;;;;;;;;;;;;;4.33;93.05;102852.94;5045596;28;20366;-69
2022/01/23 07:17:11;;;;;;;;;;;;;;;4.34;92.33;102859.88;5035450;28;20731;-68
2022/01/23 07:19:36;;;;;;;;;;;;;;;4.35;92.35;102861.59;5018373;27;20090;-67
2022/01/23 07:22:01;;;;;;;;;;;;;;;4.34;93.01;102865.13;5028194;27;19990;-66
2022/01/23 07:24:27;;;;;;;;;;;;;;;4.30;93.07;102868.72;5016242;27;19948;-69
2022/01/23 07:26:52;;;;;;;;;;;;;;;4.30;92.59;102863.47;5050883;27;19961;-68
2022/01/23 07:29:18;;;;;;;;;;;;;;;4.33;92.32;102878.28;5031394;27;19911;-68
2022/01/23 07:31:56;;;;;;;;;;;;;;;4.33;92.80;102871.28;5052421;27;19914;-66
2022/01/23 07:34:21;;;;;;;;;;;;;;;4.37;92.22;102872.91;5052550;27;19937;-65
2022/01/23 07:36:46;;;;;;;;;;;;;;;4.37;92.23;102867.69;5054487;27;19915;-66
2022/01/23 07:39:11;;;;;;;;;;;;;;;4.42;92.29;102863.13;5053683;27;20228;-67
2022/01/23 07:41:37;;;;;;;;;;;;;;;4.39;91.80;102865.84;5070603;27;19951;-67
2022/01/23 07:44:02;;;;;;;;;;;;;;;4.43;92.45;102866.63;5052490;27;19899;-67
2022/01/23 07:46:27;;;;;;;;;;;;;;;4.43;92.31;102874.50;5056524;27;19979;-66
2022/01/23 07:48:52;;;;;;;;;;;;;;;4.45;92.48;102873.53;5037185;27;19907;-67
2022/01/23 07:51:18;;;;;;;;;;;;;;;4.38;92.50;102881.63;5054962;27;19911;-66
2022/01/23 07:53:43;;;;;;;;;;;;;;;4.36;92.62;102884.28;5033902;27;19908;-67
2022/01/23 07:56:08;;;;;;;;;;;;;;;4.39;92.77;102883.34;5037038;27;19980;-67
2022/01/23 07:58:33;;;;;;;;;;;;;;;4.50;92.51;102890.88;5037418;27;19903;-66
2022/01/23 08:00:59;;;;;;;;;;;;;;;4.62;92.12;102898.41;5032810;27;20041;-67
2022/01/23 08:03:24;;;;;;;;;;;;;;;4.59;91.85;102898.50;5032348;27;20004;-66
2022/01/23 08:05:49;;;;;;;;;;;;;;;4.53;92.06;102886.44;5018816;27;20044;-67
2022/01/23 08:08:15;;;;;;;;;;;;;;;5.26;95.46;102900.84;5033738;27;20288;-68
2022/01/23 08:10:40;;;;;;;;;;;;;;;6.92;97.54;102901.19;5026456;27;20016;-69
2022/01/23 08:13:05;;;;;;;;;;;;;;;7.24;88.46;102896.41;5048814;27;20001;-68
2022/01/23 08:15:31;;;;;;;;;;;;;;;7.38;82.38;102899.34;5048056;27;19930;-65
2022/01/23 08:18:15;;;;;;;;;;;;;;;6.56;81.82;102908.69;5051441;27;20325;-70
2022/01/23 08:20:40;;;;;;;;;;;;;;;5.97;83.88;102910.78;5044230;27;19912;-67
2022/01/23 08:23:06;;;;;;;;;;;;;;;5.62;85.34;102905.78;5037875;27;20845;-67
2022/01/23 08:25:31;;;;;;;;;;;;;;;5.45;85.91;102914.22;5020166;27;20016;-68
2022/01/23 08:27:56;;;;;;;;;;;;;;;5.20;87.62;102911.53;5033985;27;20475;-68
2022/01/23 08:30:22;;;;;;;;;;;;;;;5.31;88.17;102916.44;5036172;27;19919;-68
2022/01/23 08:32:47;;;;;;;;;;;;;;;5.31;88.13;102921.69;5036638;27;19914;-67
2022/01/23 08:35:12;;;;;;;;;;;;;;;5.07;89.04;102929.41;5033137;27;19926;-66
2022/01/23 08:37:37;;;;;;;;;;;;;;;5.07;89.20;102920.69;5034789;27;20247;-67
2022/01/23 08:40:03;;;;;;;;;;;;;;;4.94;89.73;102922.84;5037886;27;20231;-67
2022/01/23 08:42:28;;;;;;;;;;;;;;;4.90;89.64;102927.31;5016024;27;19918;-67
2022/01/23 08:44:54;;;;;;;;;;;;;;;4.92;89.93;102930.75;5052675;27;19944;-67
2022/01/23 08:47:21;;;;;;;;;;;;;;;4.82;90.23;102939.78;5048936;27;19920;-67
2022/01/23 08:49:49;;;;;;;;;;;;;;;4.81;90.91;102943.34;5050937;27;20157;-67
2022/01/23 08:52:17;;;;;;;;;;;;;;;4.82;90.95;102939.78;5021313;27;19993;-67
2022/01/23 08:54:42;;;;;;;;;;;;;;;4.82;90.67;102952.91;5034962;27;19926;-66
2022/01/23 08:57:07;;;;;;;;;;;;;;;4.80;91.06;102952.94;5039865;27;20137;-67
2022/01/23 08:59:32;;;;;;;;;;;;;;;4.84;91.11;102947.59;5036563;27;20915;-69
2022/01/23 09:01:58;;;;;;;;;;;;;;;4.89;90.99;102950.97;5026396;27;19947;-66
2022/01/23 09:04:23;;;;;;;;;;;;;;;4.95;90.63;102948.16;5009162;27;19911;-68
2022/01/23 09:06:48;;;;;;;;;;;;;;;4.95;91.31;102940.28;5023661;27;19922;-68
2022/01/23 09:09:20;;;;;;;;;;;;;;;4.93;91.09;102937.69;5047817;27;20070;-67
2022/01/23 09:14:49;;;;;;;;;;;;;;;4.91;91.24;102934.28;4961560;28;20025;-67
2022/01/23 09:17:14;;;;;;;;;;;;;;;5.01;90.33;102934.00;4949992;28;19931;-67
2022/01/23 09:19:39;;;;;;;;;;;;;;;5.02;90.63;102930.47;5003515;27;20039;-67
2022/01/23 09:22:05;;;;;;;;;;;;;;;4.99;90.26;102931.41;5049239;27;20308;-68
2022/01/23 09:24:30;;;;;;;;;;;;;;;4.97;91.10;102930.59;5038033;27;19948;-69
2022/01/23 09:27:02;;;;;;;;;;;;;;;5.02;91.14;102938.34;5049491;27;20872;-70
2022/01/23 09:29:39;;;;;;;;;;;;;;;5.00;89.87;102938.38;5033261;27;19915;-68
2022/01/23 09:32:05;;;;;;;;;;;;;;;5.02;90.01;102936.59;5055419;27;20317;-67
2022/01/23 09:34:33;;;;;;;;;;;;;;;5.06;90.06;102935.59;5025906;27;19930;-66
2022/01/23 09:36:59;;;;;;;;;;;;;;;5.02;90.92;102933.09;5042378;27;19914;-66
2022/01/23 09:39:24;;;;;;;;;;;;;;;5.03;90.30;102933.03;5045139;27;19907;-68
2022/01/23 09:42:06;;;;;;;;;;;;;;;5.04;90.28;102929.53;5044633;27;19903;-67
2022/01/23 09:44:36;;;;;;;;;;;;;;;5.06;90.52;102932.97;5057915;27;20009;-67
2022/01/23 09:47:01;;;;;;;;;;;;;;;5.03;90.05;102942.69;5063357;27;19923;-66
2022/01/23 09:49:26;;;;;;;;;;;;;;;5.14;89.68;102944.06;5057378;27;19910;-66
2022/01/23 09:51:52;;;;;;;;;;;;;;;5.14;89.72;102946.69;5020135;27;20755;-66
2022/01/23 09:54:18;;;;;;;;;;;;;;;5.12;90.29;102951.13;5051023;27;20360;-67
2022/01/23 09:56:43;;;;;;;;;;;;;;;5.10;89.85;102947.69;5041415;27;20606;-67
2022/01/23 09:59:09;;;;;;;;;;;;;;;5.18;90.65;102947.47;5032901;27;19907;-65
2022/01/23 10:01:35;;;;;;;;;;;;;;;5.21;90.23;102949.16;5056009;27;19937;-68
2022/01/23 10:04:00;;;;;;;;;;;;;;;5.25;90.62;102953.41;5040310;27;20810;-65
2022/01/23 10:06:26;;;;;;;;;;;;;;;5.27;89.64;102956.81;5057904;27;20301;-67
2022/01/23 10:08:51;;;;;;;;;;;;;;;5.22;89.61;102933.34;5031619;27;21000;-67
2022/01/23 10:11:16;;;;;;;;;;;;;;;5.29;88.93;102944.53;5079160;27;19904;-68
2022/01/23 10:13:41;;;;;;;;;;;;;;;5.26;88.51;102940.22;5034613;27;20514;-67
2022/01/23 10:16:07;;;;;;;;;;;;;;;5.23;89.45;102957.81;5048631;27;19927;-67
2022/01/23 10:18:32;;;;;;;;;;;;;;;5.30;89.28;102954.09;5065741;27;20337;-67
2022/01/23 10:20:57;;;;;;;;;;;;;;;5.36;89.01;102951.28;5042293;27;19907;-66
2022/01/23 10:23:23;;;;;;;;;;;;;;;5.42;89.21;102951.09;5047755;27;20442;-66
2022/01/23 10:25:51;;;;;;;;;;;;;;;5.41;88.76;102946.72;5044686;27;20398;-65
2022/01/23 10:28:18;;;;;;;;;;;;;;;5.50;88.71;102956.97;5037947;27;19914;-69
2022/01/23 10:30:46;;;;;;;;;;;;;;;5.48;88.51;102950.88;5057774;27;19956;-67
2022/01/23 10:33:16;;;;;;;;;;;;;;;5.49;88.01;102957.00;5040964;27;19899;-66
2022/01/23 10:36:01;;;;;;;;;;;;;;;5.47;88.01;102954.44;5058224;27;19929;-66
2022/01/23 10:38:31;;;;;;;;;;;;;;;5.47;88.26;102956.19;5039620;27;19907;-66
2022/01/23 10:41:06;;;;;;;;;;;;;;;5.49;88.04;102952.59;5062152;27;20711;-67
2022/01/23 10:48:59;;;;;;;;;;;;;;;5.63;87.66;102946.91;5040814;27;20760;-68
2022/01/23 10:51:25;;;;;;;;;;;;;;;5.57;88.03;102955.00;5054412;27;19915;-68
2022/01/23 10:54:00;;;;;;;;;;;;;;;5.57;87.88;102955.00;5051025;27;20704;-68
2022/01/23 10:56:26;;;;;;;;;;;;;;;5.62;87.75;102954.84;5056910;27;19919;-69
2022/01/23 10:59:01;;;;;;;;;;;;;;;5.67;87.81;102955.56;5052564;27;20224;-66
2022/01/23 11:01:28;;;;;;;;;;;;;;;5.67;87.86;102951.16;5049878;27;19907;-67
2022/01/23 11:04:22;;;;;;;;;;;;;;;5.59;87.53;102953.19;5035288;27;19915;-68
2022/01/23 11:06:58;;;;;;;;;;;;;;;5.56;87.94;102948.03;5038789;27;20419;-67
2022/01/23 11:09:27;;;;;;;;;;;;;;;5.61;87.42;102946.13;5039541;27;20084;-67
2022/01/23 11:12:00;;;;;;;;;;;;;;;5.61;87.45;102940.00;5056516;27;19930;-67
2022/01/23 11:17:25;;;;;;;;;;;;;;;5.61;87.94;102940.00;5058888;27;19910;-68
2022/01/23 11:20:00;;;;;;;;;;;;;;;5.61;88.20;102935.63;5034225;28;19907;-66
2022/01/23 11:22:29;;;;;;;;;;;;;;;5.70;87.92;102921.31;5055224;27;19911;-65
2022/01/23 11:24:56;;;;;;;;;;;;;;;5.75;87.89;102919.38;5014845;28;20818;-66
2022/01/23 11:27:21;;;;;;;;;;;;;;;5.78;87.82;102926.28;5046768;27;20332;-66
2022/01/23 11:29:53;;;;;;;;;;;;;;;5.72;87.60;102911.59;5042073;27;19911;-66
2022/01/23 11:32:23;;;;;;;;;;;;;;;5.72;87.59;102916.84;5038198;27;19915;-67
2022/01/23 11:34:48;;;;;;;;;;;;;;;5.74;87.38;102915.03;5030255;27;20035;-67
2022/01/23 11:37:15;;;;;;;;;;;;;;;5.80;87.13;102912.19;5046553;27;19908;-66
2022/01/23 11:39:46;;;;;;;;;;;;;;;5.82;87.07;102913.03;5055586;27;19996;-68
2022/01/23 11:56:23;;;;;;;;;;;;;;;5.76;87.08;102912.38;5058757;27;20849;-66
2022/01/23 11:58:48;;;;;;;;;;;;;;;5.75;87.09;102908.84;5043301;27;19938;-67
2022/01/23 12:01:17;;;;;;;;;;;;;;;5.74;87.04;102908.91;5039761;27;19914;-68
2022/01/23 12:04:01;;;;;;;;;;;;;;;5.75;87.12;102908.84;5043563;27;19907;-67
2022/01/23 12:06:26;;;;;;;;;;;;;;;5.76;87.04;102907.97;5043392;27;19907;-66
2022/01/23 12:08:51;;;;;;;;;;;;;;;5.76;87.44;102902.69;5056128;27;19918;-66
2022/01/23 12:16:20;;;;;;;;;;;;;;;5.91;86.53;102897.81;5042045;27;20033;-66
2022/01/23 12:16:54;;;;;;;;;;;;;;;5.83;85.44;102893.69;5050688;27;20175;-67
2022/01/23 12:19:20;;;;;;;;;;;;;;;5.82;85.60;102892.00;5025080;27;19916;-67
2022/01/23 12:21:46;;;;;;;;;;;;;;;5.84;86.17;102895.41;5040941;27;19907;-67
2022/01/23 12:24:13;;;;;;;;;;;;;;;5.84;85.51;102898.06;5040742;27;20790;-68
2022/01/23 12:26:38;;;;;;;;;;;;;;;5.90;85.41;102904.88;5045495;27;20433;-67
2022/01/23 12:29:13;;;;;;;;;;;;;;;5.93;84.99;102899.50;5040939;27;20362;-67
2022/01/23 12:31:38;;;;;;;;;;;;;;;5.91;84.73;102900.44;5075037;27;19918;-67
2022/01/23 12:34:03;;;;;;;;;;;;;;;5.92;84.91;102886.41;5064339;27;20265;-67
2022/01/23 12:36:32;;;;;;;;;;;;;;;5.97;84.67;102884.50;5061436;27;19915;-67
2022/01/23 12:39:06;;;;;;;;;;;;;;;5.98;84.75;102875.75;5025280;27;19915;-68
2022/01/23 12:41:32;;;;;;;;;;;;;;;5.94;84.15;102885.44;5062757;27;20730;-67
2022/01/23 12:44:03;;;;;;;;;;;;;;;5.94;83.63;102880.19;5063586;27;19907;-67
2022/01/23 12:46:35;;;;;;;;;;;;;;;5.95;83.45;102883.66;5029201;27;19942;-67
2022/01/23 12:49:19;;;;;;;;;;;;;;;5.97;84.34;102879.25;5059280;27;19908;-67
2022/01/23 12:51:44;;;;;;;;;;;;;;;6.01;83.94;102875.63;5047183;27;20016;-66
2022/01/23 12:54:10;;;;;;;;;;;;;;;5.98;83.51;102875.75;5053854;27;19927;-67
2022/01/23 12:56:42;;;;;;;;;;;;;;;6.11;83.46;102870.91;5042809;27;20618;-67
2022/01/23 12:59:12;;;;;;;;;;;;;;;6.11;83.84;102871.75;5059294;27;19903;-67
2022/01/23 13:01:41;;;;;;;;;;;;;;;6.14;84.21;102863.75;5043120;27;19911;-66
2022/01/23 13:04:06;;;;;;;;;;;;;;;6.18;84.04;102869.75;5046626;27;19908;-66
2022/01/23 13:06:32;;;;;;;;;;;;;;;6.14;83.72;102860.28;5042293;27;19948;-67
2022/01/23 13:09:22;;;;;;;;;;;;;;;6.23;83.32;102866.97;5055975;27;19914;-67
2022/01/23 13:12:05;;;;;;;;;;;;;;;6.18;82.39;102861.88;5041986;27;19944;-66
2022/01/23 13:17:40;;;;;;;;;;;;;;;6.13;82.41;102856.75;5052726;27;19948;-67
2022/01/23 13:30:56;;;;;;;;;;;;;;;6.28;80.40;102851.88;5044962;27;19919;-68
2022/01/23 13:33:23;;;;;;;;;;;;;;;6.24;81.10;102855.53;5038102;27;19907;-68
2022/01/23 13:35:53;;;;;;;;;;;;;;;6.28;80.33;102862.41;5034509;27;19923;-67
2022/01/23 13:38:22;;;;;;;;;;;;;;;6.23;80.49;102859.91;5022800;27;20856;-67
2022/01/23 13:40:57;;;;;;;;;;;;;;;6.27;80.47;102855.41;5040953;27;19917;-68
2022/01/23 13:52:25;;;;;;;;;;;;;;;6.39;80.23;102854.97;5046496;27;20450;-68
2022/01/23 14:04:30;;;;;;;;;;;;;;;6.47;79.54;102847.66;5031526;27;19904;-68
2022/01/23 14:06:56;;;;;;;;;;;;;;;6.52;79.54;102855.34;5054494;27;20012;-68
2022/01/23 14:09:22;;;;;;;;;;;;;;;6.60;79.05;102849.78;5049399;27;20153;-69
2022/01/23 14:11:47;;;;;;;;;;;;;;;6.58;79.22;102854.28;5026857;27;19904;-68
2022/01/23 14:14:13;;;;;;;;;;;;;;;6.59;79.44;102856.00;5036745;27;19919;-67
2022/01/23 14:16:38;;;;;;;;;;;;;;;6.60;79.35;102852.41;5049227;27;20024;-66
2022/01/23 14:19:35;;;;;;;;;;;;;;;6.65;79.59;102840.81;5048285;27;19907;-68
2022/01/23 14:22:01;;;;;;;;;;;;;;;6.63;79.41;102839.19;5017419;27;19912;-67
2022/01/23 14:24:30;;;;;;;;;;;;;;;6.67;79.22;102851.25;5048221;27;20127;-67
2022/01/23 14:26:56;;;;;;;;;;;;;;;6.66;78.80;102850.41;5047702;27;19976;-67
2022/01/23 14:29:22;;;;;;;;;;;;;;;6.63;78.56;102860.22;5052675;27;20118;-68
2022/01/23 14:32:02;;;;;;;;;;;;;;;6.63;78.57;102849.69;5052983;27;20012;-70
2022/01/23 14:34:27;;;;;;;;;;;;;;;6.66;78.95;102849.56;5027845;27;19915;-68
2022/01/23 14:36:56;;;;;;;;;;;;;;;6.60;78.62;102845.41;5016592;27;19919;-68
2022/01/23 14:39:22;;;;;;;;;;;;;;;6.62;78.65;102855.88;5055526;27;20717;-68
2022/01/23 14:41:48;;;;;;;;;;;;;;;6.70;79.09;102848.53;5035594;27;19904;-68
2022/01/23 14:44:20;;;;;;;;;;;;;;;6.67;79.34;102853.91;5038049;27;20007;-69
2022/01/23 14:46:46;;;;;;;;;;;;;;;6.59;78.86;102848.09;5056221;27;19927;-68
2022/01/23 14:49:21;;;;;;;;;;;;;;;6.56;78.97;102850.81;5056744;27;20860;-68
2022/01/23 14:51:46;;;;;;;;;;;;;;;6.46;78.94;102847.72;5033439;27;19908;-68
2022/01/23 14:54:11;;;;;;;;;;;;;;;6.27;79.15;102844.91;5033443;27;19915;-67
2022/01/23 14:56:39;;;;;;;;;;;;;;;6.40;79.51;102840.03;5030351;28;19922;-67
2022/01/23 14:59:07;;;;;;;;;;;;;;;6.39;79.47;102833.94;5027038;28;20391;-68
2022/01/23 15:01:33;;;;;;;;;;;;;;;6.43;79.40;102832.91;5031698;27;19908;-65
2022/01/23 15:04:01;;;;;;;;;;;;;;;6.42;79.22;102840.84;5036381;27;19972;-69
2022/01/23 15:06:26;;;;;;;;;;;;;;;6.39;79.53;102835.69;5031309;27;19907;-69
2022/01/23 15:08:51;;;;;;;;;;;;;;;6.32;79.99;102840.34;5034691;27;19907;-68
2022/01/23 15:11:16;;;;;;;;;;;;;;;6.26;79.72;102840.53;5041392;27;19932;-68
2022/01/23 15:13:41;;;;;;;;;;;;;;;6.28;79.91;102842.22;5033092;27;19907;-68
2022/01/23 15:16:07;;;;;;;;;;;;;;;6.27;80.53;102842.28;5034741;27;20561;-68
2022/01/23 15:18:32;;;;;;;;;;;;;;;6.26;80.92;102841.41;5019387;27;20016;-69
2022/01/23 15:20:58;;;;;;;;;;;;;;;6.16;81.12;102835.66;5018783;27;19948;-68
2022/01/23 15:23:23;;;;;;;;;;;;;;;6.19;81.38;102842.56;5037724;27;19908;-68
2022/01/23 15:25:48;;;;;;;;;;;;;;;6.19;81.13;102832.91;5036514;27;19968;-69
2022/01/23 15:28:13;;;;;;;;;;;;;;;6.17;80.91;102839.13;5041773;27;19918;-66
2022/01/23 15:30:39;;;;;;;;;;;;;;;6.18;80.52;102838.22;5034249;27;20816;-65
2022/01/23 15:33:06;;;;;;;;;;;;;;;6.15;81.20;102836.56;5034717;27;20848;-66
2022/01/23 15:35:31;;;;;;;;;;;;;;;6.19;80.54;102842.56;5036663;27;20020;-67
2022/01/23 15:37:57;;;;;;;;;;;;;;;6.13;80.02;102838.38;5039556;27;19904;-69
2022/01/23 15:40:22;;;;;;;;;;;;;;;6.13;80.07;102838.38;5039405;27;19918;-68
2022/01/23 15:42:49;;;;;;;;;;;;;;;6.13;79.77;102833.09;5038584;27;19910;-66
2022/01/23 15:45:14;;;;;;;;;;;;;;;6.12;80.31;102831.41;5039318;27;20298;-68
2022/01/23 15:47:40;;;;;;;;;;;;;;;6.12;80.93;102835.78;5035441;27;20322;-68
2022/01/23 15:50:06;;;;;;;;;;;;;;;6.14;81.08;102833.97;5029813;27;19960;-68
2022/01/23 15:52:31;;;;;;;;;;;;;;;6.11;81.07;102840.19;5038986;27;20419;-68
2022/01/23 15:54:56;;;;;;;;;;;;;;;6.11;80.78;102840.19;5031263;27;20028;-68
2022/01/23 15:57:21;;;;;;;;;;;;;;;6.07;81.23;102846.47;5033156;27;19972;-67
2022/01/23 15:59:47;;;;;;;;;;;;;;;6.01;82.14;102838.81;5031490;27;19912;-67
2022/01/23 16:02:12;;;;;;;;;;;;;;;5.95;82.49;102842.50;5039137;27;20637;-67